Glenview, Kentucky
Current Conditions -  °F | °C
As of 4:53 PM on Thursday 18 Dec 2014 (Local Time) from KLOU Reporting Station
Overcast Overcast  
Wind Chill: 33°   Ceiling: 8500
Heat Index: 33°   Visibility: 9mi
Dew Point: 23°   Wind: 3mph
Humidity: 66%   Direction: 330°NNW
Pressure: 30.24"   Gusts: NA
Location:  38.31°N, 85.65°W
Report Text: KLOU 182153Z 33003KT 9SM OVC085 01/M05 A3024 RMK AO2 SLP244 T00061050
Loading
Personal Weather Stations






























Interactive Weather Map New forecast layout! Learn more

10-Day Weather Forecast

Advertisements
Track Severe Weather on mobile